Time,TemperatureF,DewpointF,PressureIn,WindDirection,WindDirectionDegrees,WindSpeedMPH,WindSpeedGustMPH,Humidity,HourlyPrecipIn,Conditions,Clouds,dailyrainin,SolarRadiationWatts/m^2,SoftwareType,DateUTC
2013-01-05 00:08:00,33.7,9.0,30.34,WSW,246,0.0,0.0,35,0.00,,,0.00,0,weatherlink.com 1.10,2013-01-05 08:08:00,
2013-01-05 00:23:00,33.8,9.0,30.34,WSW,246,0.0,0.0,35,0.00,,,0.00,0,weatherlink.com 1.10,2013-01-05 08:23:00,
2013-01-05 00:53:00,33.2,9.0,30.34,WSW,246,0.0,0.0,37,0.00,,,0.00,0,weatherlink.com 1.10,2013-01-05 08:53:00,
2013-01-05 01:08:00,33.2,9.0,30.34,WSW,246,0.0,1.0,36,0.00,,,0.00,0,weatherlink.com 1.10,2013-01-05 09:08:00,
2013-01-05 01:23:00,33.5,9.0,30.35,WSW,246,0.0,2.0,36,0.00,,,0.00,0,weatherlink.com 1.10,2013-01-05 09:23:00,
2013-01-05 01:38:00,34.0,8.0,30.35,WSW,246,0.0,3.0,34,0.00,,,0.00,0,weatherlink.com 1.10,2013-01-05 09:38:00,
2013-01-05 01:53:00,34.4,9.0,30.36,WSW,246,0.0,2.0,34,0.00,,,0.00,0,weatherlink.com 1.10,2013-01-05 09:53:00,
2013-01-05 02:08:00,34.3,8.0,30.36,WSW,246,0.0,2.0,34,0.00,,,0.00,0,weatherlink.com 1.10,2013-01-05 10:08:00,
2013-01-05 02:23:00,33.9,8.0,30.36,WSW,246,0.0,0.0,34,0.00,,,0.00,0,weatherlink.com 1.10,2013-01-05 10:23:00,
2013-01-05 02:38:00,33.5,9.0,30.37,WSW,246,0.0,2.0,36,0.00,,,0.00,0,weatherlink.com 1.10,2013-01-05 10:38:00,
2013-01-05 02:53:00,33.2,9.0,30.37,WSW,246,0.0,1.0,37,0.00,,,0.00,0,weatherlink.com 1.10,2013-01-05 10:53:00,
2013-01-05 03:08:00,32.7,8.0,30.36,WSW,246,0.0,0.0,36,0.00,,,0.00,0,weatherlink.com 1.10,2013-01-05 11:08:00,
2013-01-05 03:23:00,32.6,8.0,30.37,WSW,246,0.0,0.0,36,0.00,,,0.00,0,weatherlink.com 1.10,2013-01-05 11:23:00,
2013-01-05 03:38:00,32.9,9.0,30.38,WSW,246,0.0,0.0,36,0.00,,,0.00,0,weatherlink.com 1.10,2013-01-05 11:38:00,
2013-01-05 03:53:00,33.0,8.0,30.38,WSW,246,0.0,1.0,35,0.00,,,0.00,0,weatherlink.com 1.10,2013-01-05 11:53:00,
2013-01-05 04:08:00,33.0,9.0,30.38,WSW,246,0.0,2.0,36,0.00,,,0.00,0,weatherlink.com 1.10,2013-01-05 12:08:00,
2013-01-05 04:23:00,33.0,8.0,30.38,WSW,246,0.0,0.0,35,0.00,,,0.00,0,weatherlink.com 1.10,2013-01-05 12:23:00,
2013-01-05 04:38:00,32.8,8.0,30.38,WSW,246,0.0,0.0,36,0.00,,,0.00,0,weatherlink.com 1.10,2013-01-05 12:38:00,
2013-01-05 04:53:00,32.9,9.0,30.37,WSW,246,0.0,1.0,36,0.00,,,0.00,0,weatherlink.com 1.10,2013-01-05 12:53:00,
2013-01-05 05:08:00,33.0,8.0,30.38,WSW,246,0.0,0.0,35,0.00,,,0.00,0,weatherlink.com 1.10,2013-01-05 13:08:00,
2013-01-05 05:23:00,33.0,8.0,30.38,WSW,246,0.0,0.0,35,0.00,,,0.00,0,weatherlink.com 1.10,2013-01-05 13:23:00,
2013-01-05 05:38:00,32.9,8.0,30.38,WSW,246,0.0,2.0,35,0.00,,,0.00,0,weatherlink.com 1.10,2013-01-05 13:38:00,
2013-01-05 05:53:00,32.8,8.0,30.38,WSW,246,0.0,1.0,36,0.00,,,0.00,0,weatherlink.com 1.10,2013-01-05 13:53:00,
2013-01-05 06:08:00,32.3,8.0,30.39,WSW,246,0.0,0.0,36,0.00,,,0.00,0,weatherlink.com 1.10,2013-01-05 14:08:00,
2013-01-05 06:23:00,32.1,8.0,30.39,WSW,246,0.0,0.0,37,0.00,,,0.00,0,weatherlink.com 1.10,2013-01-05 14:23:00,
2013-01-05 06:38:00,32.4,9.0,30.39,WSW,246,0.0,0.0,37,0.00,,,0.00,0,weatherlink.com 1.10,2013-01-05 14:38:00,
2013-01-05 06:53:00,32.4,9.0,30.40,WSW,246,0.0,3.0,38,0.00,,,0.00,0,weatherlink.com 1.10,2013-01-05 14:53:00,
2013-01-05 07:08:00,32.1,9.0,30.40,WSW,250,0.0,0.0,38,0.00,,,0.00,9,weatherlink.com 1.10,2013-01-05 15:08:00,
2013-01-05 07:23:00,31.6,9.0,30.41,WSW,250,0.0,1.0,39,0.00,,,0.00,14,weatherlink.com 1.10,2013-01-05 15:23:00,
2013-01-05 07:38:00,31.2,9.0,30.41,WSW,250,0.0,0.0,39,0.00,,,0.00,16,weatherlink.com 1.10,2013-01-05 15:38:00,
2013-01-05 07:53:00,31.0,10.0,30.41,WSW,250,0.0,0.0,41,0.00,,,0.00,19,weatherlink.com 1.10,2013-01-05 15:53:00,
2013-01-05 08:08:00,30.8,11.0,30.42,WSW,250,0.0,1.0,44,0.00,,,0.00,21,weatherlink.com 1.10,2013-01-05 16:08:00,
2013-01-05 08:23:00,30.9,12.0,30.42,WSW,250,0.0,0.0,45,0.00,,,0.00,23,weatherlink.com 1.10,2013-01-05 16:23:00,
2013-01-05 08:38:00,31.2,12.0,30.43,WSW,250,0.0,0.0,45,0.00,,,0.00,23,weatherlink.com 1.10,2013-01-05 16:38:00,
2013-01-05 08:53:00,32.1,12.0,30.43,WSW,250,0.0,0.0,43,0.00,,,0.00,25,weatherlink.com 1.10,2013-01-05 16:53:00,
2013-01-05 09:08:00,33.4,11.0,30.43,WSW,250,0.0,1.0,40,0.00,,,0.00,77,weatherlink.com 1.10,2013-01-05 17:08:00,
2013-01-05 09:23:00,38.5,10.0,30.43,WSW,250,0.0,2.0,31,0.00,,,0.00,369,weatherlink.com 1.10,2013-01-05 17:23:00,
2013-01-05 09:39:00,40.5,11.0,30.43,WSW,250,0.0,1.0,30,0.00,,,0.00,397,weatherlink.com 1.10,2013-01-05 17:39:00,
2013-01-05 09:54:00,41.9,10.0,30.43,WSW,250,0.0,2.0,27,0.00,,,0.00,422,weatherlink.com 1.10,2013-01-05 17:54:00,
2013-01-05 10:09:00,43.1,11.0,30.43,WSW,250,1.0,1.0,27,0.00,,,0.00,441,weatherlink.com 1.10,2013-01-05 18:09:00,
2013-01-05 10:24:00,43.9,12.0,30.43,South,174,0.0,3.0,27,0.00,,,0.00,459,weatherlink.com 1.10,2013-01-05 18:24:00,
2013-01-05 10:39:00,44.1,12.0,30.43,SSE,167,0.0,2.0,27,0.00,,,0.00,476,weatherlink.com 1.10,2013-01-05 18:39:00,
2013-01-05 10:54:00,45.1,14.0,30.42,SSE,167,0.0,1.0,28,0.00,,,0.00,485,weatherlink.com 1.10,2013-01-05 18:54:00,
2013-01-05 11:09:00,45.1,14.0,30.41,East,90,0.0,3.0,28,0.00,,,0.00,494,weatherlink.com 1.10,2013-01-05 19:09:00,
2013-01-05 11:24:00,46.4,14.0,30.40,NE,47,0.0,6.0,27,0.00,,,0.00,497,weatherlink.com 1.10,2013-01-05 19:24:00,
2013-01-05 11:39:00,46.0,13.0,30.39,ENE,77,2.0,5.0,26,0.00,,,0.00,499,weatherlink.com 1.10,2013-01-05 19:39:00,
2013-01-05 11:54:00,46.1,12.0,30.38,ESE,120,0.0,7.0,25,0.00,,,0.00,494,weatherlink.com 1.10,2013-01-05 19:54:00,
2013-01-05 12:09:00,46.8,14.0,30.37,NE,34,8.0,8.0,27,0.00,,,0.00,487,weatherlink.com 1.10,2013-01-05 20:09:00,
2013-01-05 12:24:00,47.4,12.0,30.36,ENE,66,3.0,7.0,24,0.00,,,0.00,350,weatherlink.com 1.10,2013-01-05 20:24:00,
2013-01-05 12:39:00,47.5,13.0,30.36,NE,53,2.0,7.0,25,0.00,,,0.00,441,weatherlink.com 1.10,2013-01-05 20:39:00,
2013-01-05 12:54:00,47.8,13.0,30.35,ENE,64,1.0,4.0,25,0.00,,,0.00,450,weatherlink.com 1.10,2013-01-05 20:54:00,
2013-01-05 13:09:00,48.2,12.0,30.34,NNE,30,1.0,7.0,23,0.00,,,0.00,432,weatherlink.com 1.10,2013-01-05 21:09:00,
2013-01-05 13:24:00,47.6,11.0,30.34,East,80,2.0,5.0,23,0.00,,,0.00,396,weatherlink.com 1.10,2013-01-05 21:24:00,
2013-01-05 13:39:00,48.2,15.0,30.34,East,84,2.0,4.0,26,0.00,,,0.00,364,weatherlink.com 1.10,2013-01-05 21:39:00,
2013-01-05 13:54:00,48.0,13.0,30.33,ENE,61,2.0,5.0,24,0.00,,,0.00,345,weatherlink.com 1.10,2013-01-05 21:54:00,
2013-01-05 14:09:00,48.2,13.0,30.32,NNE,26,0.0,5.0,24,0.00,,,0.00,323,weatherlink.com 1.10,2013-01-05 22:09:00,
2013-01-05 14:24:00,48.1,14.0,30.32,NE,51,1.0,5.0,25,0.00,,,0.00,271,weatherlink.com 1.10,2013-01-05 22:24:00,
2013-01-05 14:39:00,47.5,13.0,30.32,NE,48,5.0,8.0,25,0.00,,,0.00,113,weatherlink.com 1.10,2013-01-05 22:39:00,
2013-01-05 14:54:00,47.4,13.0,30.31,NE,37,0.0,7.0,25,0.00,,,0.00,58,weatherlink.com 1.10,2013-01-05 22:54:00,
2013-01-05 15:09:00,47.0,14.0,30.31,NE,44,4.0,4.0,26,0.00,,,0.00,58,weatherlink.com 1.10,2013-01-05 23:09:00,
2013-01-05 15:24:00,46.8,13.0,30.31,NE,45,0.0,3.0,25,0.00,,,0.00,47,weatherlink.com 1.10,2013-01-05 23:24:00,
2013-01-05 15:39:00,46.5,12.0,30.31,NE,46,0.0,2.0,25,0.00,,,0.00,46,weatherlink.com 1.10,2013-01-05 23:39:00,
2013-01-05 15:54:00,46.1,14.0,30.31,NE,46,0.0,4.0,27,0.00,,,0.00,39,weatherlink.com 1.10,2013-01-05 23:54:00,
2013-01-05 16:09:00,45.7,14.0,30.31,NE,46,0.0,1.0,28,0.00,,,0.00,28,weatherlink.com 1.10,2013-01-06 00:09:00,
2013-01-05 16:24:00,45.1,15.0,30.31,NE,46,0.0,0.0,30,0.00,,,0.00,12,weatherlink.com 1.10,2013-01-06 00:24:00,
2013-01-05 16:39:00,44.2,14.0,30.30,NE,46,1.0,3.0,29,0.00,,,0.00,0,weatherlink.com 1.10,2013-01-06 00:39:00,
2013-01-05 16:54:00,43.4,14.0,30.30,NE,46,0.0,1.0,30,0.00,,,0.00,0,weatherlink.com 1.10,2013-01-06 00:54:00,
2013-01-05 17:09:00,42.8,12.0,30.30,NNW,340,2.0,3.0,29,0.00,,,0.00,0,weatherlink.com 1.10,2013-01-06 01:09:00,
2013-01-05 17:24:00,42.4,13.0,30.30,WNW,300,2.0,4.0,30,0.00,,,0.00,0,weatherlink.com 1.10,2013-01-06 01:24:00,
2013-01-05 17:39:00,42.1,12.0,30.30,WNW,300,1.0,3.0,29,0.00,,,0.00,0,weatherlink.com 1.10,2013-01-06 01:39:00,
2013-01-05 17:54:00,41.9,12.0,30.30,WNW,300,0.0,2.0,30,0.00,,,0.00,0,weatherlink.com 1.10,2013-01-06 01:54:00,
2013-01-05 18:09:00,41.8,12.0,30.29,WNW,300,0.0,1.0,30,0.00,,,0.00,0,weatherlink.com 1.10,2013-01-06 02:09:00,
2013-01-05 18:24:00,41.6,11.0,30.29,WNW,300,0.0,1.0,29,0.00,,,0.00,0,weatherlink.com 1.10,2013-01-06 02:24:00,
2013-01-05 18:39:00,41.5,12.0,30.29,WNW,300,0.0,0.0,30,0.00,,,0.00,0,weatherlink.com 1.10,2013-01-06 02:39:00,
2013-01-05 18:54:00,41.1,12.0,30.29,WNW,298,0.0,4.0,30,0.00,,,0.00,0,weatherlink.com 1.10,2013-01-06 02:54:00,
2013-01-05 19:09:00,40.8,11.0,30.29,WNW,298,0.0,0.0,30,0.00,,,0.00,0,weatherlink.com 1.10,2013-01-06 03:09:00,
2013-01-05 19:24:00,40.7,11.0,30.28,WNW,298,0.0,1.0,30,0.00,,,0.00,0,weatherlink.com 1.10,2013-01-06 03:24:00,
2013-01-05 19:39:00,40.7,11.0,30.28,WNW,298,0.0,2.0,30,0.00,,,0.00,0,weatherlink.com 1.10,2013-01-06 03:39:00,
2013-01-05 19:54:00,40.5,11.0,30.28,WNW,298,0.0,1.0,30,0.00,,,0.00,0,weatherlink.com 1.10,2013-01-06 03:54:00,
2013-01-05 20:09:00,40.1,12.0,30.27,WNW,298,1.0,3.0,31,0.00,,,0.00,0,weatherlink.com 1.10,2013-01-06 04:09:00,
2013-01-05 20:24:00,39.7,10.0,30.27,WNW,298,0.0,1.0,30,0.00,,,0.00,0,weatherlink.com 1.10,2013-01-06 04:24:00,
2013-01-05 20:39:00,39.3,11.0,30.28,WNW,298,0.0,0.0,31,0.00,,,0.00,0,weatherlink.com 1.10,2013-01-06 04:39:00,
2013-01-05 20:54:00,39.2,10.0,30.28,WNW,298,0.0,0.0,30,0.00,,,0.00,0,weatherlink.com 1.10,2013-01-06 04:54:00,
2013-01-05 21:24:00,39.5,10.0,30.27,WNW,298,2.0,3.0,30,0.00,,,0.00,0,weatherlink.com 1.10,2013-01-06 05:24:00,
2013-01-05 21:39:00,39.6,11.0,30.27,WNW,297,0.0,3.0,31,0.00,,,0.00,0,weatherlink.com 1.10,2013-01-06 05:39:00,
2013-01-05 21:55:00,39.6,10.0,30.27,WNW,297,0.0,3.0,30,0.00,,,0.00,0,weatherlink.com 1.10,2013-01-06 05:55:00,
2013-01-05 22:09:00,39.5,10.0,30.27,WNW,297,0.0,0.0,30,0.00,,,0.00,0,weatherlink.com 1.10,2013-01-06 06:09:00,
2013-01-05 22:25:00,39.4,10.0,30.26,WNW,297,0.0,0.0,30,0.00,,,0.00,0,weatherlink.com 1.10,2013-01-06 06:25:00,
2013-01-05 22:55:00,39.5,10.0,30.25,WNW,290,0.0,1.0,29,0.00,,,0.00,0,weatherlink.com 1.10,2013-01-06 06:55:00,
2013-01-05 23:10:00,39.4,9.0,30.25,WNW,290,1.0,1.0,29,0.00,,,0.00,0,weatherlink.com 1.10,2013-01-06 07:10:00,
2013-01-05 23:25:00,39.3,9.0,30.24,WNW,290,2.0,3.0,28,0.00,,,0.00,0,weatherlink.com 1.10,2013-01-06 07:25:00,
2013-01-05 23:40:00,39.4,9.0,30.24,WNW,290,0.0,1.0,28,0.00,,,0.00,0,weatherlink.com 1.10,2013-01-06 07:40:00,
2013-01-05 23:55:00,39.3,9.0,30.23,WNW,290,0.0,1.0,29,0.00,,,0.00,0,weatherlink.com 1.10,2013-01-06 07:55:00,